Chiang Mai, Thailand

2:34 PM ICT on September 03, 2014 (GMT +0700)
Chiang Mai International | Change Station
CLOSE
Current Station
Airport
Location: Chiang Mai,
Elevation: 1030 ft
Nearby Weather Stations

Elev 1030 ft 18.77 °N, 98.97 °E | Updated 34 minutes ago

Mostly Cloudy
Mostly Cloudy
77 °F
Feels Like 77 °F
N
8
Wind Variable Wind from West

Today
High -- | Low -- °F
--% Chance of Precip.
Yesterday
High -- | Low -- °F
Precip. -- in
6:09 AM 6:37 PM
First Quarter, 59% visible
Pressure 29.80 in
Visibility 6.2 miles
Clouds Mostly Cloudy 3500 ft
Dew Point 73 °F
Humidity 89%
Rainfall 0.00 in
Snow Depth Not available.
UV 8 out of 12
Pollen Not available.
Air Quality Not available.
Flu Activity Not available.
METAR VTCC 030700Z 27007KT 9999 BKN035 25/23 Q1009 A2981 TEMPO FM0605 TL0735 19025KT 3000 TSRA FEW020CB BKN032

More Conditions Fewer Conditions

Pressure 29.80 in
Visibility 6.2 miles
Clouds Mostly Cloudy 3500 ft
Dew Point 73 °F
Humidity 89%
Rainfall 0.00 in
Snow Depth Not available.
UV 8 out of 12
Pollen Not available.
Air Quality Not available.
Flu Activity Not available.
METAR VTCC 030700Z 27007KT 9999 BKN035 25/23 Q1009 A2981 TEMPO FM0605 TL0735 19025KT 3000 TSRA FEW020CB BKN032

More Conditions Fewer Conditions

10-Day Weather Forecast

Almanac

Astronomy

Sep. 03, 2014 Rise Set
Actual Time 6:09 AM ICT 6:37 PM ICT
Civil Twilight 5:47 AM ICT 6:59 PM ICT
Nautical Twilight 5:21 AM ICT 7:25 PM ICT
Astronomical Twilight 4:55 AM ICT 7:51 PM ICT
Moon 1:23 PM ICT 12:00 AM ICT
Length of Visible Light 13h 11m
Length of Day
12h 27m
Tomorrow will be 1m 2s shorter.
First Quarter, 59% of the Moon is Illuminated
Today
First Quarter
Sep 8
Full
Sep 15
Last Quarter
Sep 24
New
Oct 1
First Quarter

Yesterday's Extremes

Country Highs Country Lows

Community

WunderPhotos

Upload Photos

1,749,891 photos uploaded!

Nearby

Snow Depth

Not available.

Earthquake Activity

City Distance Mag. Time & Date
No recent earthquake activity has been reported nearby.
Minimum magnitude displayed is 2.5.

Coastal Water Temperatures

Place Temperature
No Stations Reporting

Nearby Weather Stations